• Join FlightAware (Why Join?)
  • Login
  • US Flag 
01:41AM EDT


 

Airport Tracker/Info


-or-


 

Live Flight TrackerFlight Track Log ✈ DAL1092 ✈ 08-Aug-2013 ✈ KATL - KSYR

Flight Track Log - Related Links

Times and Time Zones

All times are in EDT time to prevent confusion due to time zone crossing. See the DAL1092 flight status page for this flight to view local times or setup timezone preferences in your user account.

Time Position Orientation Groundspeed Altitude Reporting Facility
EDT Latitude Longitude Course Direction KTS MPH feet Rate Location/Type
10:03AM 33.6478 -84.3708 11° North 466 536 2,500  Level Atlanta Center
10:04AM 33.6667 -84.2833 75° East 277 319 4,400 2,400 Climbing Atlanta TRACON
10:05AM 33.7000 -84.1833 68° East 287 330 7,500 2,580 Climbing Atlanta TRACON
10:07AM 34.0534 -84.2667 North  Level FlightAware Approximate
10:07AM 33.7833 -84.1833 360° North 301 346 9,900  Level Atlanta TRACON
10:07AM 33.8667 -84.2000 351° North 373 429 10,000 840 Climbing Atlanta TRACON
10:08AM 34.1763 -84.2667 North  Level FlightAware Approximate
10:08AM 33.9667 -84.2667 331° Northwest 424 488 11,500  Level Atlanta TRACON
10:09AM 34.2988 -84.2630 11° North  Level FlightAware Approximate
10:10AM 34.1803 -84.2797 357° North 440 506 15,300  Level Atlanta Center
10:11AM 34.3053 -84.2778 North 440 506 17,300 1,260 Climbing Atlanta Center
10:12AM 34.4328 -84.2503 10° North 435 501 17,900 420 Climbing Atlanta Center
10:13AM 34.5558 -84.2203 11° North 435 501 18,200 780 Climbing Atlanta Center
10:14AM 34.6500 -84.1953 12° North 435 501 19,500 1,620 Climbing Atlanta Center
10:15AM 34.7833 -84.1703 North 430 495 21,500 1,440 Climbing Atlanta Center
10:16AM 34.9067 -84.1375 12° North 430 495 22,400 900 Climbing Atlanta Center
10:17AM 35.0339 -84.1097 10° North 447 514 23,400 900 Climbing Atlanta Center
10:18AM 35.1633 -84.0769 12° North 458 527 24,200 720 Climbing Atlanta Center
10:19AM 35.2928 -84.0464 11° North 469 540 24,900 900 Climbing Atlanta Center
10:20AM 35.4261 -84.0133 11° North 474 545 26,000 900 Climbing Atlanta Center
10:21AM 35.5617 -83.9800 11° North 480 552 26,800 720 Climbing Atlanta Center
10:22AM 35.6869 -83.9236 20° North 485 558 27,500 600 Climbing Atlanta Center
10:23AM 35.7994 -83.8339 33° Northeast 480 552 28,000 480 Climbing Atlanta Center
10:24AM 35.9078 -83.7464 33° Northeast 466 536 28,500 900 Climbing Atlanta Center
10:25AM 36.0181 -83.6614 32° Northeast 466 536 29,800 1,200 Climbing Atlanta Center
10:26AM 36.1283 -83.5733 33° Northeast 466 536 31,000 720 Climbing Atlanta Center
10:27AM 36.2131 -83.5108 31° Northeast 468 539 31,000 840 Level Indianapolis Center
10:28AM 36.3214 -83.4250 33° Northeast 479 551 32,400 960 Climbing Indianapolis Center
10:29AM 36.4303 -83.3386 33° Northeast 468 539 33,000 240 Climbing Indianapolis Center
10:30AM 36.5381 -83.2522 33° Northeast 462 532 33,000  Level Indianapolis Center
10:31AM 36.6453 -83.1592 35° Northeast 464 534 33,000  Level Indianapolis Center
10:32AM 36.7664 -83.0531 35° Northeast 452 520 33,000  Level Indianapolis Center
10:33AM 36.8650 -82.9736 33° Northeast 445 512 33,000 240 Level Indianapolis Center
10:34AM 36.9831 -82.8842 31° Northeast 449 517 33,500 480 Climbing Indianapolis Center
10:35AM 37.0900 -82.7931 34° Northeast 453 521 34,000 540 Climbing Indianapolis Center
10:36AM 37.1975 -82.7078 32° Northeast 454 522 34,700 480 Climbing Indianapolis Center
10:37AM 37.3061 -82.6219 32° Northeast 458 527 35,000 120 Climbing Indianapolis Center
10:38AM 37.4136 -82.5347 33° Northeast 459 528 35,000  Level Indianapolis Center
10:39AM 37.5208 -82.4489 32° Northeast 455 524 35,000  Level Indianapolis Center
10:40AM 37.6267 -82.3608 33° Northeast 455 524 35,000  Level Indianapolis Center
10:41AM 37.7308 -82.2672 35° Northeast 458 527 35,000  Level Indianapolis Center
10:42AM 37.8411 -82.1672 36° Northeast 458 527 35,000  Level Indianapolis Center
10:43AM 37.9453 -82.0697 36° Northeast 464 534 35,000  Level Indianapolis Center
10:44AM 38.0489 -81.9753 36° Northeast 460 529 35,000  Level Indianapolis Center
10:46AM 38.1517 -81.8800 36° Northeast 458 527 35,000  Level Indianapolis Center
10:47AM 38.2775 -81.7653 36° Northeast 463 533 35,000  Level Indianapolis Center
10:48AM 38.3817 -81.6686 36° Northeast 465 535 35,000  Level Indianapolis Center
10:49AM 38.4831 -81.5744 36° Northeast 454 522 35,000  Level Indianapolis Center
10:50AM 38.5817 -81.4806 37° Northeast 450 518 35,000  Level Indianapolis Center
10:51AM 38.6939 -81.3794 35° Northeast 445 512 35,000  Level Indianapolis Center
10:52AM 38.7983 -81.2800 37° Northeast 447 514 35,000  Level Indianapolis Center
10:53AM 38.8978 -81.1878 36° Northeast 444 511 35,000  Level Indianapolis Center
10:54AM 38.9961 -81.0942 36° Northeast 443 510 35,000  Level Indianapolis Center
10:55AM 39.0950 -81.0003 36° Northeast 442 509 35,000  Level Indianapolis Center
10:56AM 39.1953 -80.9056 36° Northeast 447 514 35,000  Level Indianapolis Center
10:57AM 39.2956 -80.8089 37° Northeast 449 517 35,000  Level Indianapolis Center
10:58AM 39.3972 -80.7125 36° Northeast 452 520 35,000 -300 Level Indianapolis Center
10:59AM 39.5206 -80.5939 37° Northeast 461 531 34,500 -780 Descending Indianapolis Center
11:00AM 39.6278 -80.4906 37° Northeast 475 547 33,500 -780 Descending Indianapolis Center
11:01AM 39.7361 -80.3872 36° Northeast 482 555 33,000 -300 Descending Indianapolis Center
11:02AM 39.8433 -80.2819 37° Northeast 484 557 33,000  Level Indianapolis Center
11:03AM 39.9519 -80.1772 36° Northeast 483 556 33,000  Level Indianapolis Center
11:04AM 40.0603 -80.0700 37° Northeast 487 560 33,000  Level Indianapolis Center
11:05AM 40.1678 -79.9664 36° Northeast 483 556 33,000  Level Indianapolis Center
11:06AM 40.2961 -79.8428 36° Northeast 484 557 33,000  Level Cleveland Center
11:07AM 40.4039 -79.7353 37° Northeast 484 557 33,000  Level Cleveland Center
11:08AM 40.5092 -79.6272 38° Northeast 484 557 33,000  Level Cleveland Center
11:09AM 40.6189 -79.5192 37° Northeast 484 557 33,000  Level Cleveland Center
11:10AM 40.7261 -79.4106 37° Northeast 484 557 33,000  Level Cleveland Center
11:11AM 40.8333 -79.3042 37° Northeast 484 557 33,000  Level Cleveland Center
11:12AM 40.9406 -79.1950 38° Northeast 484 557 33,000  Level Cleveland Center
11:13AM 41.0475 -79.0853 38° Northeast 484 557 33,000  Level Cleveland Center
11:14AM 41.1544 -78.9781 37° Northeast 484 557 33,000  Level Cleveland Center
11:15AM 41.2656 -78.8650 37° Northeast 484 557 33,000  Level Cleveland Center
11:16AM 41.3722 -78.7542 38° Northeast 484 557 33,000  Level Cleveland Center
11:17AM 41.4808 -78.6431 37° Northeast 484 557 33,000 -60 Level Cleveland Center
11:18AM 41.5872 -78.5289 39° Northeast 484 557 32,900 -540 Descending Cleveland Center
11:19AM 41.6956 -78.4167 38° Northeast 484 557 32,000 -900 Descending Cleveland Center
11:20AM 41.8039 -78.3017 38° Northeast 484 557 31,100 -960 Descending Cleveland Center
11:21AM 41.9142 -78.1889 37° Northeast 484 557 30,100 -780 Descending Cleveland Center
11:22AM 42.0222 -78.0758 38° Northeast 489 563 29,600 -780 Descending Cleveland Center
11:23AM 42.1281 -77.9514 41° Northeast 489 563 28,600 -960 Descending Cleveland Center
11:24AM 42.2247 -77.8156 46° Northeast 489 563 27,700 -960 Descending Cleveland Center
11:25AM 42.3256 -77.6792 45° Northeast 500 575 26,700 -1,020 Descending Cleveland Center
11:26AM 42.4364 -77.5306 45° Northeast 500 575 25,700 -1,200 Descending Cleveland Center
11:27AM 42.5269 -77.4022 46° Northeast 505 581 24,400 -2,400 Descending Cleveland Center
11:28AM 42.6231 -77.2647 46° Northeast 505 581 20,900 -3,000 Descending Cleveland Center
11:29AM 42.7153 -77.1353 46° Northeast 489 563 18,400 -2,220 Descending Cleveland Center
11:30AM 42.8050 -77.0086 46° Northeast 472 543 16,500 -2,220 Descending Cleveland Center
11:31AM 42.8453 -76.9292 55° Northeast 452 520 15,000 -2,340 Descending Boston Center
11:32AM 42.9069 -76.7947 58° Northeast 445 512 13,100 -1,740 Descending Boston Center
11:33AM 42.9642 -76.6625 59° Northeast 402 463 11,700 -1,500 Descending Boston Center
11:34AM 43.0164 -76.5411 59° Northeast 319 367 10,100 -1,920 Descending Boston Center
11:35AM 43.0617 -76.4419 58° Northeast 301 346 7,900 -1,620 Descending Boston Center
11:36AM 43.0983 -76.3503 61° Northeast 267 307 6,900 -1,200 Descending Boston Center
11:37AM 43.1361 -76.2817 53° Northeast 206 237 5,500 -2,040 Descending Boston Center
11:38AM 43.1292 -76.2328 101° East 171 197 2,900 -2,160 Descending Boston Center
11:39AM 43.1056 -76.1944 130° Southeast 156 180 1,400 -1,680 Descending Boston Center